createdAt,value
2018-11-20T00:01:36.334Z,4.50
2018-11-20T00:04:43.651Z,4.50
2018-11-20T00:07:40.452Z,4.50
2018-11-20T00:10:47.790Z,4.50
2018-11-20T00:13:55.122Z,4.50
2018-11-20T00:17:02.496Z,4.50
2018-11-20T00:20:09.787Z,4.60
2018-11-20T00:23:17.162Z,4.50
2018-11-20T00:26:24.491Z,4.60
2018-11-20T00:29:31.778Z,4.60
2018-11-20T00:32:39.129Z,4.60
2018-11-20T00:35:36.042Z,4.60
2018-11-20T00:38:43.395Z,4.60
2018-11-20T00:41:50.708Z,4.60
2018-11-20T00:44:58.036Z,4.60
2018-11-20T00:48:05.364Z,4.60
2018-11-20T00:51:12.655Z,4.60
2018-11-20T00:54:15.850Z,4.60
2018-11-20T00:57:23.158Z,4.60
2018-11-20T01:00:30.492Z,4.70
2018-11-20T01:03:37.787Z,4.60
2018-11-20T01:06:45.110Z,4.70
2018-11-20T01:09:52.423Z,4.70
2018-11-20T01:12:59.751Z,4.70
2018-11-20T01:16:07.052Z,4.70
2018-11-20T01:19:14.377Z,4.60
2018-11-20T01:22:21.714Z,4.60
2018-11-20T01:25:29.022Z,4.60
2018-11-20T01:28:27.010Z,4.70
2018-11-20T01:31:34.304Z,4.70
2018-11-20T01:34:41.627Z,4.60
2018-11-20T01:37:48.914Z,4.70
2018-11-20T01:40:56.258Z,4.60
2018-11-20T01:44:03.592Z,4.60
2018-11-20T01:47:10.880Z,4.60
2018-11-20T01:50:18.198Z,4.50
2018-11-20T01:53:25.507Z,4.60
2018-11-20T01:56:32.800Z,4.50
2018-11-20T01:59:40.165Z,4.50
2018-11-20T02:02:47.456Z,4.50
2018-11-20T02:05:54.774Z,4.50
2018-11-20T02:09:02.164Z,4.40
2018-11-20T02:12:09.555Z,4.40
2018-11-20T02:15:16.903Z,4.30
2018-11-20T02:18:27.244Z,4.30
2018-11-20T02:21:34.549Z,4.20
2018-11-20T02:24:41.956Z,4.20
2018-11-20T02:27:49.360Z,4.20
2018-11-20T02:30:56.665Z,4.10
2018-11-20T02:34:04.176Z,4.10
2018-11-20T02:37:02.624Z,4.00
2018-11-20T02:40:10.002Z,3.90
2018-11-20T02:43:17.325Z,3.90
2018-11-20T02:46:24.680Z,3.90
2018-11-20T02:49:24.939Z,3.90
2018-11-20T02:52:32.250Z,3.80
2018-11-20T02:55:39.542Z,3.80
2018-11-20T02:58:46.844Z,3.80
2018-11-20T03:01:54.192Z,3.80
2018-11-20T03:04:59.831Z,3.70
2018-11-20T03:08:07.166Z,3.70
2018-11-20T03:11:14.520Z,3.70
2018-11-20T03:14:21.836Z,3.70
2018-11-20T03:17:29.136Z,3.60
2018-11-20T03:20:36.472Z,3.60
2018-11-20T03:23:43.741Z,3.60
2018-11-20T03:26:51.079Z,3.60
2018-11-20T03:30:14.291Z,3.60
2018-11-20T03:33:21.643Z,3.60
2018-11-20T03:36:28.984Z,3.60
2018-11-20T03:39:36.314Z,3.50
2018-11-20T03:42:43.638Z,3.60
2018-11-20T03:45:50.937Z,3.50
2018-11-20T03:48:58.331Z,3.50
2018-11-20T03:51:53.789Z,3.50
2018-11-20T03:54:48.304Z,3.50
2018-11-20T03:57:45.846Z,3.50
2018-11-20T04:00:53.146Z,3.40
2018-11-20T04:04:00.458Z,3.40
2018-11-20T04:07:07.802Z,3.40
2018-11-20T04:10:15.137Z,3.40
2018-11-20T04:13:22.454Z,3.40
2018-11-20T04:16:19.754Z,3.40
2018-11-20T04:19:27.091Z,3.40
2018-11-20T04:22:34.435Z,3.40
2018-11-20T04:25:41.725Z,3.30
2018-11-20T04:28:49.029Z,3.40
2018-11-20T04:32:15.291Z,3.40
2018-11-20T04:35:22.853Z,3.40
2018-11-20T04:38:30.149Z,3.40
2018-11-20T04:41:37.456Z,3.40
2018-11-20T04:44:44.771Z,3.40
2018-11-20T04:47:52.053Z,3.40
2018-11-20T04:50:59.352Z,3.30
2018-11-20T04:54:06.648Z,3.40
2018-11-20T04:57:13.984Z,3.30
2018-11-20T05:00:13.486Z,3.30
2018-11-20T05:03:03.448Z,3.30
2018-11-20T05:06:09.016Z,3.40
2018-11-20T05:09:09.051Z,3.40
2018-11-20T05:12:08.801Z,3.40
2018-11-20T05:15:08.872Z,3.40
2018-11-20T05:18:08.923Z,3.40
2018-11-20T05:21:09.098Z,3.40
2018-11-20T05:24:08.863Z,3.40
2018-11-20T05:27:07.025Z,3.40
2018-11-20T05:30:07.336Z,3.40
2018-11-20T05:33:13.392Z,3.40
2018-11-20T05:36:13.465Z,3.40
2018-11-20T05:39:13.314Z,3.20
2018-11-20T05:42:05.849Z,3.40
2018-11-20T05:45:05.542Z,3.30
2018-11-20T05:48:05.396Z,3.30
2018-11-20T05:50:57.281Z,3.30
2018-11-20T05:53:56.962Z,3.30
2018-11-20T05:56:56.697Z,3.30
2018-11-20T05:59:56.453Z,3.30
2018-11-20T06:02:56.442Z,3.30
2018-11-20T06:05:47.332Z,3.30
2018-11-20T06:08:47.607Z,3.30
2018-11-20T06:11:47.860Z,3.30
2018-11-20T06:14:50.728Z,3.30
2018-11-20T06:17:50.768Z,3.30
2018-11-20T06:20:38.511Z,3.30
2018-11-20T06:23:32.004Z,3.30
2018-11-20T06:26:37.427Z,3.30
2018-11-20T06:29:37.713Z,3.20
2018-11-20T06:32:37.589Z,3.30
2018-11-20T06:35:28.542Z,3.30
2018-11-20T06:38:28.223Z,3.30
2018-11-20T06:41:28.540Z,3.30
2018-11-20T06:44:28.159Z,3.30
2018-11-20T06:47:28.275Z,3.30
2018-11-20T06:50:28.008Z,3.30
2018-11-20T06:53:28.400Z,3.30
2018-11-20T06:56:19.663Z,3.30
2018-11-20T06:59:22.753Z,3.30
2018-11-20T07:02:23.862Z,3.30
2018-11-20T07:05:31.170Z,3.30
2018-11-20T07:08:38.555Z,3.30
2018-11-20T07:11:45.799Z,3.30
2018-11-20T07:14:53.572Z,3.30
2018-11-20T07:18:00.974Z,3.30
2018-11-20T07:21:08.281Z,3.30
2018-11-20T07:24:15.627Z,3.30
2018-11-20T07:27:22.911Z,3.30
2018-11-20T07:30:30.313Z,3.30
2018-11-20T07:33:37.540Z,3.30
2018-11-20T07:36:44.984Z,3.30
2018-11-20T07:39:52.186Z,3.30
2018-11-20T07:42:59.510Z,3.30
2018-11-20T07:46:06.833Z,3.30
2018-11-20T07:49:14.122Z,3.30
2018-11-20T07:52:21.464Z,3.30
2018-11-20T07:55:35.878Z,3.30
2018-11-20T07:58:43.119Z,3.30
2018-11-20T08:01:50.514Z,3.30
2018-11-20T08:04:57.804Z,3.40
2018-11-20T08:08:05.142Z,3.30
2018-11-20T08:11:12.432Z,3.40
2018-11-20T08:14:19.791Z,3.40
2018-11-20T08:17:27.096Z,3.40
2018-11-20T08:20:34.459Z,3.40
2018-11-20T08:23:41.763Z,3.40
2018-11-20T08:26:49.068Z,3.40
2018-11-20T08:29:56.351Z,3.40
2018-11-20T08:33:03.700Z,3.40
2018-11-20T08:36:11.030Z,3.40
2018-11-20T08:39:15.025Z,3.40
2018-11-20T08:42:22.473Z,3.40
2018-11-20T08:45:29.641Z,3.40
2018-11-20T08:48:36.954Z,3.40
2018-11-20T08:51:44.262Z,3.40
2018-11-20T08:54:52.342Z,3.40
2018-11-20T08:57:59.655Z,3.40
2018-11-20T09:01:06.986Z,3.40
2018-11-20T09:04:14.307Z,3.50
2018-11-20T09:07:21.600Z,3.50
2018-11-20T09:10:29.024Z,3.50
2018-11-20T09:13:31.612Z,3.50
2018-11-20T09:16:38.947Z,3.50
2018-11-20T09:19:46.288Z,3.50
2018-11-20T09:22:53.613Z,3.60
2018-11-20T09:26:00.913Z,3.60
2018-11-20T09:29:08.225Z,3.60
2018-11-20T09:32:15.510Z,3.70
2018-11-20T09:35:23.081Z,3.70
2018-11-20T09:38:30.223Z,3.70
2018-11-20T09:41:37.540Z,3.80
2018-11-20T09:44:41.270Z,3.80
2018-11-20T09:47:48.667Z,3.80
2018-11-20T09:50:56.159Z,3.90
2018-11-20T09:54:03.472Z,3.90
2018-11-20T09:57:10.792Z,3.90
2018-11-20T10:00:13.273Z,3.90
2018-11-20T10:03:20.604Z,3.90
2018-11-20T10:06:27.890Z,3.90
2018-11-20T10:09:35.203Z,3.90
2018-11-20T10:12:42.525Z,3.80
2018-11-20T10:15:49.839Z,3.80
2018-11-20T10:18:57.160Z,3.80
2018-11-20T10:22:04.510Z,3.80
2018-11-20T10:25:11.787Z,3.90
2018-11-20T10:28:19.115Z,3.90
2018-11-20T10:31:26.448Z,3.90
2018-11-20T10:34:33.839Z,3.90
2018-11-20T10:37:41.083Z,3.90
2018-11-20T10:40:48.421Z,3.90
2018-11-20T10:43:45.452Z,3.90
2018-11-20T10:46:52.791Z,3.90
2018-11-20T10:50:00.082Z,3.90
2018-11-20T10:53:07.425Z,3.90
2018-11-20T10:56:14.718Z,4.00
2018-11-20T10:59:22.057Z,4.00
2018-11-20T11:02:29.349Z,3.90
2018-11-20T11:05:55.629Z,3.90
2018-11-20T11:08:45.940Z,4.00
2018-11-20T11:11:54.529Z,3.90
2018-11-20T11:15:01.851Z,3.90
2018-11-20T11:18:09.197Z,3.90
2018-11-20T11:21:16.505Z,3.90
2018-11-20T11:24:12.566Z,3.90
2018-11-20T11:27:19.879Z,4.00
2018-11-20T11:30:28.039Z,4.00
2018-11-20T11:33:35.366Z,4.00
2018-11-20T11:36:42.681Z,4.00
2018-11-20T11:39:49.987Z,4.00
2018-11-20T11:42:57.277Z,4.00
2018-11-20T11:46:04.618Z,4.00
2018-11-20T11:49:11.904Z,4.00
2018-11-20T11:52:10.278Z,4.00
2018-11-20T11:55:17.665Z,4.00
2018-11-20T11:58:24.960Z,4.00
2018-11-20T12:04:38.779Z,4.00
2018-11-20T12:07:47.304Z,4.00
2018-11-20T12:10:53.438Z,4.00
2018-11-20T12:14:00.762Z,4.00
2018-11-20T12:17:08.059Z,4.00
2018-11-20T12:20:15.411Z,4.00
2018-11-20T12:23:22.773Z,4.00
2018-11-20T12:26:30.074Z,4.00
2018-11-20T12:29:39.060Z,4.00
2018-11-20T12:32:44.726Z,3.90
2018-11-20T12:35:52.059Z,4.00
2018-11-20T12:39:00.345Z,4.00
2018-11-20T12:42:06.707Z,4.00
2018-11-20T12:45:15.612Z,4.00
2018-11-20T12:48:22.333Z,3.90
2018-11-20T12:51:28.732Z,3.90
2018-11-20T12:54:36.047Z,4.00
2018-11-20T12:57:43.406Z,3.90
2018-11-20T13:00:50.706Z,3.90
2018-11-20T13:03:58.042Z,3.90
2018-11-20T13:07:05.378Z,3.90
2018-11-20T13:10:12.706Z,3.90
2018-11-20T13:13:20.005Z,3.80
2018-11-20T13:16:27.401Z,3.80
2018-11-20T13:19:35.734Z,3.80
2018-11-20T13:22:42.083Z,3.80
2018-11-20T13:25:49.478Z,3.80
2018-11-20T13:28:57.030Z,3.80
2018-11-20T13:32:04.490Z,3.70
2018-11-20T13:35:11.979Z,3.70
2018-11-20T13:38:19.343Z,3.70
2018-11-20T13:41:45.597Z,3.70
2018-11-20T13:44:53.774Z,3.70
2018-11-20T13:48:01.081Z,3.70
2018-11-20T13:51:08.482Z,3.80
2018-11-20T13:54:05.455Z,3.70
2018-11-20T13:57:12.848Z,3.70
2018-11-20T14:00:20.180Z,3.70
2018-11-20T14:03:22.403Z,3.70
2018-11-20T14:06:29.740Z,3.70
2018-11-20T14:09:37.072Z,3.60
2018-11-20T14:12:44.515Z,3.60
2018-11-20T14:15:51.817Z,3.60
2018-11-20T14:18:59.136Z,3.60
2018-11-20T14:22:06.745Z,3.60
2018-11-20T14:25:14.620Z,3.60
2018-11-20T14:28:21.577Z,3.60
2018-11-20T14:31:28.927Z,3.60
2018-11-20T14:34:36.206Z,3.60
2018-11-20T14:37:43.583Z,3.50
2018-11-20T14:40:50.909Z,3.50
2018-11-20T14:43:58.238Z,3.50
2018-11-20T14:47:05.614Z,3.50
2018-11-20T14:50:12.904Z,3.50
2018-11-20T14:53:20.242Z,3.50
2018-11-20T14:56:27.844Z,3.50
2018-11-20T14:59:34.870Z,3.50
2018-11-20T15:02:42.181Z,3.50
2018-11-20T15:05:48.909Z,3.50
2018-11-20T15:08:56.204Z,3.50
2018-11-20T15:12:03.542Z,3.40
2018-11-20T15:15:10.887Z,3.40
2018-11-20T15:18:18.222Z,3.40
2018-11-20T15:21:25.539Z,3.40
2018-11-20T15:24:32.889Z,3.40
2018-11-20T15:27:40.276Z,3.40
2018-11-20T15:30:47.692Z,3.30
2018-11-20T15:33:55.050Z,3.30
2018-11-20T15:37:02.366Z,3.30
2018-11-20T15:39:58.187Z,3.30
2018-11-20T15:42:58.166Z,3.30
2018-11-20T15:46:05.505Z,3.30
2018-11-20T15:49:12.800Z,3.30
2018-11-20T15:52:20.120Z,3.20
2018-11-20T15:55:27.447Z,3.20
2018-11-20T15:58:34.990Z,3.10
2018-11-20T16:01:42.371Z,3.10
2018-11-20T16:04:44.788Z,3.10
2018-11-20T16:07:52.121Z,3.00
2018-11-20T16:10:43.258Z,3.00
2018-11-20T16:13:50.601Z,3.00
2018-11-20T16:16:57.897Z,3.00
2018-11-20T16:20:05.236Z,2.90
2018-11-20T16:23:12.575Z,3.00
2018-11-20T16:26:19.922Z,2.90
2018-11-20T16:29:27.226Z,2.90
2018-11-20T16:32:34.552Z,2.80
2018-11-20T16:35:41.883Z,2.80
2018-11-20T16:38:49.204Z,2.80
2018-11-20T16:41:56.525Z,2.80
2018-11-20T16:45:03.836Z,2.80
2018-11-20T16:48:11.172Z,2.80
2018-11-20T16:51:18.477Z,2.80
2018-11-20T16:54:25.810Z,2.80
2018-11-20T16:57:33.127Z,2.80
2018-11-20T17:00:40.459Z,2.80
2018-11-20T17:06:57.899Z,2.70
2018-11-20T17:10:00.992Z,2.80
2018-11-20T17:13:00.596Z,2.80
2018-11-20T17:16:07.602Z,2.70
2018-11-20T17:19:14.509Z,2.70
2018-11-20T17:22:21.520Z,2.70
2018-11-20T17:25:28.430Z,2.70
2018-11-20T17:28:35.364Z,2.60
2018-11-20T17:31:42.264Z,2.60
2018-11-20T17:34:49.212Z,2.50
2018-11-20T17:37:56.152Z,2.50
2018-11-20T17:41:03.091Z,2.50
2018-11-20T17:44:09.992Z,2.50
2018-11-20T17:47:17.044Z,2.60
2018-11-20T17:50:24.317Z,2.60
2018-11-20T17:53:31.248Z,2.60
2018-11-20T17:56:38.219Z,2.60
2018-11-20T17:59:45.167Z,2.60
2018-11-20T18:02:52.204Z,2.60
2018-11-20T18:05:59.152Z,2.70
2018-11-20T18:09:06.086Z,2.70
2018-11-20T18:12:13.017Z,2.70
2018-11-20T18:15:20.007Z,2.70
2018-11-20T18:18:26.949Z,2.70
2018-11-20T18:21:33.895Z,2.70
2018-11-20T18:24:40.812Z,2.70
2018-11-20T18:27:47.764Z,2.70
2018-11-20T18:30:54.688Z,2.70
2018-11-20T18:34:01.647Z,2.70
2018-11-20T18:37:08.571Z,2.70
2018-11-20T18:40:15.485Z,2.70
2018-11-20T18:43:22.437Z,2.70
2018-11-20T18:46:29.392Z,2.70
2018-11-20T18:49:36.377Z,2.70
2018-11-20T18:52:43.288Z,2.70
2018-11-20T18:55:50.283Z,2.80
2018-11-20T18:58:57.260Z,2.70
2018-11-20T19:02:04.165Z,2.70
2018-11-20T19:05:11.119Z,2.70
2018-11-20T19:08:18.073Z,2.70
2018-11-20T19:11:25.019Z,2.70
2018-11-20T19:14:31.908Z,2.60
2018-11-20T19:17:38.835Z,2.60
2018-11-20T19:20:45.749Z,2.60
2018-11-20T19:23:52.190Z,2.60
2018-11-20T19:26:59.145Z,2.60
2018-11-20T19:30:06.064Z,2.60
2018-11-20T19:33:13.018Z,2.60
2018-11-20T19:36:19.966Z,2.70
2018-11-20T19:39:28.795Z,2.70
2018-11-20T19:42:35.671Z,2.70
2018-11-20T19:45:42.597Z,2.70
2018-11-20T19:48:49.557Z,2.70
2018-11-20T19:52:00.823Z,2.70
2018-11-20T19:55:03.412Z,2.70
2018-11-20T19:58:10.357Z,2.80
2018-11-20T20:01:17.347Z,2.80
2018-11-20T20:04:24.454Z,2.80
2018-11-20T20:07:31.406Z,2.80
2018-11-20T20:10:38.322Z,2.80
2018-11-20T20:13:45.252Z,2.80
2018-11-20T20:16:52.185Z,2.80
2018-11-20T20:19:59.157Z,2.80
2018-11-20T20:23:06.057Z,2.80
2018-11-20T20:26:12.999Z,2.80
2018-11-20T20:29:19.947Z,2.70
2018-11-20T20:32:29.638Z,2.70
2018-11-20T20:35:27.517Z,2.70
2018-11-20T20:38:34.458Z,2.80
2018-11-20T20:41:41.403Z,2.80
2018-11-20T20:44:48.293Z,2.80
2018-11-20T20:47:55.246Z,2.80
2018-11-20T20:51:02.184Z,2.80
2018-11-20T20:54:12.530Z,2.80
2018-11-20T20:57:16.032Z,2.80
2018-11-20T21:00:24.113Z,2.80
2018-11-20T21:03:31.021Z,2.80
2018-11-20T21:06:37.949Z,2.80
2018-11-20T21:09:44.890Z,2.90
2018-11-20T21:12:51.806Z,2.90
2018-11-20T21:15:58.811Z,2.90
2018-11-20T21:19:05.736Z,2.90
2018-11-20T21:22:04.934Z,3.00
2018-11-20T21:25:11.817Z,3.00
2018-11-20T21:31:23.872Z,3.00
2018-11-20T21:34:23.106Z,2.90
2018-11-20T21:37:30.018Z,2.90
2018-11-20T21:40:36.945Z,2.90
2018-11-20T21:46:58.867Z,2.90
2018-11-20T21:50:05.787Z,2.90
2018-11-20T21:53:12.697Z,2.90
2018-11-20T21:56:19.915Z,2.90
2018-11-20T21:59:28.689Z,2.90
2018-11-20T22:02:35.653Z,2.90
2018-11-20T22:05:42.588Z,2.90
2018-11-20T22:08:49.495Z,2.90
2018-11-20T22:11:56.390Z,2.90
2018-11-20T22:15:03.352Z,2.90
2018-11-20T22:18:10.235Z,2.90
2018-11-20T22:21:17.242Z,2.90
2018-11-20T22:24:24.489Z,2.90
2018-11-20T22:27:31.348Z,2.90
2018-11-20T22:30:38.290Z,2.90
2018-11-20T22:33:45.154Z,2.90
2018-11-20T22:36:52.119Z,3.00
2018-11-20T22:39:49.697Z,3.00
2018-11-20T22:42:56.620Z,2.90
2018-11-20T22:46:02.486Z,3.00
2018-11-20T22:49:09.443Z,3.00
2018-11-20T22:52:16.403Z,3.00
2018-11-20T22:55:23.397Z,3.00
2018-11-20T22:58:30.344Z,3.00
2018-11-20T23:01:37.246Z,3.00
2018-11-20T23:05:03.560Z,3.00
2018-11-20T23:07:51.069Z,3.00
2018-11-20T23:10:38.961Z,3.00
2018-11-20T23:13:26.786Z,2.90
2018-11-20T23:16:14.604Z,2.90
2018-11-20T23:19:02.381Z,2.90
2018-11-20T23:21:50.217Z,3.00
2018-11-20T23:24:37.990Z,3.00
2018-11-20T23:27:25.825Z,2.90
2018-11-20T23:30:14.632Z,3.00
2018-11-20T23:33:02.441Z,3.00
2018-11-20T23:35:50.230Z,3.00
2018-11-20T23:38:38.045Z,3.00
2018-11-20T23:41:25.851Z,3.00
2018-11-20T23:44:13.609Z,3.00
2018-11-20T23:47:01.443Z,3.00
2018-11-20T23:49:49.236Z,3.00
2018-11-20T23:52:37.227Z,3.00
2018-11-20T23:55:25.045Z,3.00
2018-11-20T23:58:12.816Z,3.00
